createdAt,value
2019-03-08T00:02:16.417Z,9.79
2019-03-08T00:07:20.828Z,9.72
2019-03-08T00:12:25.165Z,9.68
2019-03-08T00:17:29.601Z,9.75
2019-03-08T00:22:33.968Z,9.67
2019-03-08T00:27:38.308Z,9.70
2019-03-08T00:32:42.789Z,9.67
2019-03-08T00:37:47.141Z,9.77
2019-03-08T00:42:51.640Z,9.69
2019-03-08T00:47:56.326Z,9.60
2019-03-08T00:53:00.680Z,9.65
2019-03-08T00:58:06.214Z,9.69
2019-03-08T01:03:10.583Z,9.61
2019-03-08T01:08:14.948Z,9.61
2019-03-08T01:13:19.300Z,9.59
2019-03-08T01:18:23.674Z,9.52
2019-03-08T01:23:28.026Z,9.60
2019-03-08T01:28:33.724Z,9.48
2019-03-08T01:33:38.138Z,9.57
2019-03-08T01:38:42.511Z,9.49
2019-03-08T01:43:46.845Z,9.33
2019-03-08T01:48:51.250Z,9.33
2019-03-08T01:53:55.624Z,9.37
2019-03-08T02:06:02.737Z,9.35
2019-03-08T02:11:07.123Z,9.34
2019-03-08T02:16:11.483Z,9.35
2019-03-08T02:21:16.969Z,9.46
2019-03-08T02:26:21.353Z,9.38
2019-03-08T02:31:25.732Z,9.50
2019-03-08T02:36:31.906Z,9.43
2019-03-08T02:41:36.279Z,9.46
2019-03-08T02:46:40.726Z,9.50
2019-03-08T02:51:45.104Z,9.52
2019-03-08T02:56:49.445Z,9.52
2019-03-08T03:01:53.846Z,9.55
2019-03-08T03:06:58.223Z,9.61
2019-03-08T03:12:02.590Z,9.59
2019-03-08T03:17:06.920Z,9.56
2019-03-08T03:22:11.361Z,9.51
2019-03-08T03:27:15.723Z,9.61
2019-03-08T03:32:20.063Z,9.56
2019-03-08T03:37:24.432Z,9.62
2019-03-08T03:42:28.814Z,9.65
2019-03-08T03:47:33.189Z,9.62
2019-03-08T03:52:37.554Z,9.57
2019-03-08T03:57:41.917Z,9.49
2019-03-08T04:02:46.292Z,9.46
2019-03-08T04:07:50.800Z,9.52
2019-03-08T04:12:55.129Z,9.52
2019-03-08T04:18:01.061Z,9.57
2019-03-08T04:23:05.430Z,9.44
2019-03-08T04:28:09.803Z,9.55
2019-03-08T04:33:14.149Z,9.44
2019-03-08T04:38:18.538Z,9.44
2019-03-08T04:43:24.030Z,9.38
2019-03-08T04:48:28.366Z,9.54
2019-03-08T04:53:33.026Z,9.40
2019-03-08T04:58:37.390Z,9.41
2019-03-08T05:03:41.770Z,9.49
2019-03-08T05:08:47.094Z,9.43
2019-03-08T05:13:51.456Z,9.42
2019-03-08T05:18:55.820Z,9.44
2019-03-08T05:24:00.181Z,9.49
2019-03-08T05:29:04.554Z,9.34
2019-03-08T05:34:08.902Z,9.36
2019-03-08T05:39:13.284Z,9.36
2019-03-08T05:44:17.908Z,9.37
2019-03-08T05:49:22.324Z,9.30
2019-03-08T05:54:26.695Z,9.33
2019-03-08T05:59:31.147Z,9.31
2019-03-08T06:04:35.584Z,9.51
2019-03-08T06:09:40.091Z,9.67
2019-03-08T06:14:44.435Z,9.53
2019-03-08T06:19:48.770Z,9.61
2019-03-08T06:24:53.330Z,9.52
2019-03-08T06:29:57.898Z,9.46
2019-03-08T06:35:02.292Z,9.52
2019-03-08T06:40:09.772Z,9.53
2019-03-08T06:45:18.023Z,9.48
2019-03-08T06:50:22.659Z,9.46
2019-03-08T06:55:27.033Z,9.74
2019-03-08T07:00:33.112Z,9.69
2019-03-08T07:05:37.576Z,9.78
2019-03-08T07:10:42.006Z,9.74
2019-03-08T07:15:46.348Z,9.84
2019-03-08T07:21:01.640Z,9.85
2019-03-08T07:26:10.913Z,9.88
2019-03-08T07:31:16.927Z,9.87
2019-03-08T07:36:41.334Z,10.15
2019-03-08T07:41:50.275Z,10.10
2019-03-08T07:46:56.352Z,10.21
2019-03-08T07:52:05.112Z,10.16
2019-03-08T07:57:13.860Z,10.23
2019-03-08T08:02:22.664Z,10.28
2019-03-08T08:07:28.727Z,10.37
2019-03-08T08:12:34.765Z,10.29
2019-03-08T08:17:40.804Z,10.43
2019-03-08T08:23:03.168Z,10.44
2019-03-08T08:28:24.501Z,10.33
2019-03-08T08:33:30.536Z,10.32
2019-03-08T08:38:36.547Z,10.42
2019-03-08T08:43:45.217Z,10.34
2019-03-08T08:49:13.793Z,10.39
2019-03-08T08:54:29.007Z,10.33
2019-03-08T08:59:39.651Z,10.47
2019-03-08T09:04:55.916Z,10.48
2019-03-08T09:10:04.718Z,10.58
2019-03-08T09:15:25.340Z,10.42
2019-03-08T09:20:43.408Z,10.67
2019-03-08T09:26:05.796Z,10.83
2019-03-08T09:31:28.227Z,10.77
2019-03-08T09:36:40.513Z,10.72
2019-03-08T09:41:49.777Z,10.83
2019-03-08T09:46:55.855Z,10.78
2019-03-08T09:52:04.890Z,10.67
2019-03-08T09:57:27.239Z,10.76
2019-03-08T10:02:33.269Z,10.72
2019-03-08T10:07:39.322Z,10.78
2019-03-08T10:12:45.514Z,10.69
2019-03-08T10:17:57.323Z,10.67
2019-03-08T10:23:19.829Z,10.73
2019-03-08T10:28:30.303Z,10.72
2019-03-08T10:33:46.240Z,10.55
2019-03-08T10:38:46.745Z,10.66
2019-03-08T10:43:52.905Z,10.63
2019-03-08T10:48:58.919Z,10.61
2019-03-08T10:54:17.331Z,10.72
2019-03-08T10:59:26.362Z,10.84
2019-03-08T11:04:39.347Z,11.02
2019-03-08T11:09:57.639Z,10.86
2019-03-08T11:15:24.473Z,10.89
2019-03-08T11:20:26.515Z,10.67
2019-03-08T11:25:44.268Z,10.71
2019-03-08T11:30:53.880Z,10.66
2019-03-08T11:35:58.097Z,10.83
2019-03-08T11:41:19.049Z,10.41
2019-03-08T11:46:43.264Z,10.66
2019-03-08T11:51:49.313Z,10.60
2019-03-08T11:56:56.413Z,10.62
2019-03-08T12:02:18.910Z,10.58
2019-03-08T12:07:24.900Z,10.42
2019-03-08T12:12:30.979Z,10.77
2019-03-08T12:17:52.267Z,10.53
2019-03-08T12:23:07.685Z,10.20
2019-03-08T12:28:13.738Z,10.62
2019-03-08T12:33:19.763Z,10.36
2019-03-08T12:38:25.815Z,10.25
2019-03-08T12:43:31.917Z,10.32
2019-03-08T12:48:43.627Z,10.69
2019-03-08T12:59:13.034Z,10.56
2019-03-08T13:04:31.258Z,10.60
2019-03-08T13:09:40.287Z,10.36
2019-03-08T13:14:44.707Z,10.31
2019-03-08T13:19:49.056Z,10.33
2019-03-08T13:24:53.397Z,10.50
2019-03-08T13:29:57.822Z,10.46
2019-03-08T13:35:02.205Z,10.53
2019-03-08T13:40:08.992Z,10.98
2019-03-08T13:45:21.099Z,10.62
2019-03-08T13:50:25.511Z,10.49
2019-03-08T13:55:29.867Z,10.58
2019-03-08T14:00:34.245Z,10.53
2019-03-08T14:05:39.023Z,10.56
2019-03-08T14:10:43.476Z,10.83
2019-03-08T14:15:47.862Z,10.84
2019-03-08T14:20:52.203Z,10.93
2019-03-08T14:25:56.589Z,10.70
2019-03-08T14:31:05.243Z,10.84
2019-03-08T14:36:09.693Z,11.14
2019-03-08T14:41:15.766Z,10.80
2019-03-08T14:46:22.186Z,10.45
2019-03-08T14:51:26.542Z,10.71
2019-03-08T14:56:31.983Z,10.79
2019-03-08T15:01:39.935Z,10.90
2019-03-08T15:06:43.059Z,10.74
2019-03-08T15:11:48.583Z,9.66
2019-03-08T15:16:52.906Z,9.21
2019-03-08T15:21:57.543Z,9.04
2019-03-08T15:27:01.910Z,8.71
2019-03-08T15:32:06.314Z,8.45
2019-03-08T15:37:10.672Z,7.99
2019-03-08T15:42:15.061Z,7.85
2019-03-08T15:47:23.647Z,7.79
2019-03-08T15:52:25.609Z,8.05
2019-03-08T15:57:29.946Z,8.46
2019-03-08T16:02:34.308Z,8.58
2019-03-08T16:07:38.646Z,8.69
2019-03-08T16:12:43.018Z,8.59
2019-03-08T16:17:47.427Z,8.50
2019-03-08T16:22:51.846Z,8.13
2019-03-08T16:27:56.267Z,8.43
2019-03-08T16:33:05.568Z,8.38
2019-03-08T16:38:27.961Z,8.19
2019-03-08T16:43:45.798Z,8.23
2019-03-08T16:48:55.394Z,8.54
2019-03-08T16:54:01.481Z,8.37
2019-03-08T16:59:10.169Z,8.44
2019-03-08T17:04:21.671Z,8.55
2019-03-08T17:09:36.452Z,8.55
2019-03-08T17:14:58.598Z,8.48
2019-03-08T17:20:21.901Z,8.47
2019-03-08T17:25:39.962Z,8.45
2019-03-08T17:30:46.002Z,8.23
2019-03-08T17:36:04.062Z,8.05
2019-03-08T17:41:10.030Z,8.22
2019-03-08T17:46:18.735Z,8.22
2019-03-08T17:51:33.221Z,8.18
2019-03-08T17:56:48.024Z,7.80
2019-03-08T18:01:59.565Z,7.69
2019-03-08T18:07:05.544Z,7.82
2019-03-08T18:12:11.544Z,8.09
2019-03-08T18:17:20.426Z,8.00
2019-03-08T18:22:34.855Z,7.80
2019-03-08T18:27:40.874Z,7.87
2019-03-08T18:32:46.873Z,7.87
2019-03-08T18:38:08.983Z,7.91
2019-03-08T18:43:30.095Z,7.79
2019-03-08T18:48:45.397Z,8.04
2019-03-08T18:54:10.408Z,7.75
2019-03-08T18:59:16.458Z,7.80
2019-03-08T19:04:34.509Z,7.75
2019-03-08T19:09:50.364Z,7.77
2019-03-08T19:14:59.383Z,7.62
2019-03-08T19:20:24.168Z,7.67
2019-03-08T19:25:42.792Z,7.65
2019-03-08T19:31:00.977Z,7.95
2019-03-08T19:36:09.704Z,7.65
2019-03-08T19:41:15.744Z,7.75
2019-03-08T19:46:38.109Z,7.54
2019-03-08T19:51:53.228Z,7.68
2019-03-08T19:57:14.825Z,7.59
2019-03-08T20:02:22.066Z,8.03
2019-03-08T20:07:46.375Z,8.10
2019-03-08T20:12:54.002Z,8.32
2019-03-08T20:18:01.854Z,8.03
2019-03-08T20:23:24.883Z,8.11
2019-03-08T20:28:32.910Z,8.06
2019-03-08T20:33:46.721Z,7.98
2019-03-08T20:39:03.891Z,7.70
2019-03-08T20:44:12.525Z,7.73
2019-03-08T20:49:19.706Z,7.78
2019-03-08T20:54:24.759Z,7.73
2019-03-08T20:59:29.477Z,7.56
2019-03-08T21:04:35.190Z,7.38
2019-03-08T21:09:39.993Z,7.54
2019-03-08T21:14:44.465Z,7.46
2019-03-08T21:19:49.068Z,7.23
2019-03-08T21:24:55.178Z,7.35
2019-03-08T21:29:59.998Z,6.97
2019-03-08T21:35:05.339Z,6.77
2019-03-08T21:40:14.495Z,7.00
2019-03-08T21:45:19.010Z,7.22
2019-03-08T21:50:23.430Z,6.87
2019-03-08T21:55:27.849Z,6.78
2019-03-08T22:00:33.706Z,6.85
2019-03-08T22:05:39.748Z,7.33
2019-03-08T22:10:48.510Z,7.34
2019-03-08T22:15:52.879Z,7.36
2019-03-08T22:20:57.257Z,7.47
2019-03-08T22:26:01.811Z,7.17
2019-03-08T22:31:07.084Z,7.25
2019-03-08T22:36:11.434Z,7.59
2019-03-08T22:41:15.890Z,7.46
2019-03-08T22:46:20.240Z,7.21
2019-03-08T22:51:24.731Z,7.59
2019-03-08T22:56:29.103Z,7.53
2019-03-08T23:01:44.069Z,7.60
2019-03-08T23:06:48.482Z,7.31
2019-03-08T23:11:52.848Z,7.33
2019-03-08T23:16:57.202Z,7.48
2019-03-08T23:22:01.554Z,7.55
2019-03-08T23:27:19.612Z,7.56
2019-03-08T23:32:25.927Z,7.63
2019-03-08T23:37:30.250Z,7.60
2019-03-08T23:42:34.585Z,7.45
2019-03-08T23:52:55.284Z,7.59
2019-03-08T23:57:59.637Z,7.52
